<?xml version="1.0" encoding="UTF-8" standalone="no" ?>
<gpx xmlns="http://www.topografix.com/GPX/1/1" creator="CompeGPS" version="1.1" xmlns:xsi="http://www.w3.org/2001/XMLSchema-instance" xsi:schemaLocation="http://www.topografix.com/GPX/1/1 http://www.topografix.com/GPX/1/1/gpx.xsd">
  <metadata>
    <link href="http://www.compegps.com">
      <text>CompeGPS TEAM, SL</text>
    </link>
    <time>2021-10-17T17:41:01Z</time>
    <bounds maxlat="37.189804" maxlon="-3.182137" minlat="37.175090" minlon="-3.224841"/>
  </metadata>
  <trk>
    <name>2021-10-17-CGP-xYYY-01</name>
    <trkseg>
      <trkpt lat="37.186158" lon="-3.182470">
        <ele>1275.3</ele>
        <time>2021-10-17T07:03:16Z</time>
      </trkpt>
      <trkpt lat="37.186208" lon="-3.182755">
        <ele>1277.7</ele>
        <time>2021-10-17T07:04:49Z</time>
      </trkpt>
      <trkpt lat="37.186243" lon="-3.182972">
        <ele>1278.2</ele>
        <time>2021-10-17T07:05:27Z</time>
      </trkpt>
      <trkpt lat="37.186128" lon="-3.183157">
        <ele>1276.3</ele>
        <time>2021-10-17T07:05:52Z</time>
      </trkpt>
      <trkpt lat="37.186012" lon="-3.183344">
        <ele>1275.8</ele>
        <time>2021-10-17T07:06:09Z</time>
      </trkpt>
      <trkpt lat="37.185940" lon="-3.183612">
        <ele>1279.2</ele>
        <time>2021-10-17T07:06:52Z</time>
      </trkpt>
      <trkpt lat="37.185813" lon="-3.183819">
        <ele>1280.1</ele>
        <time>2021-10-17T07:07:19Z</time>
      </trkpt>
      <trkpt lat="37.185689" lon="-3.183975">
        <ele>1282.1</ele>
        <time>2021-10-17T07:07:47Z</time>
      </trkpt>
      <trkpt lat="37.185619" lon="-3.184154">
        <ele>1283.0</ele>
        <time>2021-10-17T07:08:08Z</time>
      </trkpt>
      <trkpt lat="37.185572" lon="-3.184384">
        <ele>1282.1</ele>
        <time>2021-10-17T07:08:32Z</time>
      </trkpt>
      <trkpt lat="37.185508" lon="-3.184621">
        <ele>1282.1</ele>
        <time>2021-10-17T07:08:53Z</time>
      </trkpt>
      <trkpt lat="37.185416" lon="-3.184781">
        <ele>1282.1</ele>
        <time>2021-10-17T07:10:17Z</time>
      </trkpt>
      <trkpt lat="37.185359" lon="-3.185010">
        <ele>1280.6</ele>
        <time>2021-10-17T07:10:48Z</time>
      </trkpt>
      <trkpt lat="37.185288" lon="-3.185207">
        <ele>1281.1</ele>
        <time>2021-10-17T07:11:59Z</time>
      </trkpt>
      <trkpt lat="37.185098" lon="-3.185196">
        <ele>1280.6</ele>
        <time>2021-10-17T07:12:17Z</time>
      </trkpt>
      <trkpt lat="37.184914" lon="-3.185306">
        <ele>1280.6</ele>
        <time>2021-10-17T07:12:38Z</time>
      </trkpt>
      <trkpt lat="37.184801" lon="-3.185483">
        <ele>1283.0</ele>
        <time>2021-10-17T07:12:57Z</time>
      </trkpt>
      <trkpt lat="37.184902" lon="-3.185673">
        <ele>1283.0</ele>
        <time>2021-10-17T07:13:15Z</time>
      </trkpt>
      <trkpt lat="37.184980" lon="-3.185917">
        <ele>1284.9</ele>
        <time>2021-10-17T07:13:41Z</time>
      </trkpt>
      <trkpt lat="37.185033" lon="-3.186167">
        <ele>1285.4</ele>
        <time>2021-10-17T07:14:04Z</time>
      </trkpt>
      <trkpt lat="37.185015" lon="-3.186418">
        <ele>1283.5</ele>
        <time>2021-10-17T07:14:25Z</time>
      </trkpt>
      <trkpt lat="37.185034" lon="-3.186675">
        <ele>1286.9</ele>
        <time>2021-10-17T07:14:48Z</time>
      </trkpt>
      <trkpt lat="37.185062" lon="-3.186921">
        <ele>1290.2</ele>
        <time>2021-10-17T07:15:07Z</time>
      </trkpt>
      <trkpt lat="37.185138" lon="-3.187138">
        <ele>1287.3</ele>
        <time>2021-10-17T07:15:28Z</time>
      </trkpt>
      <trkpt lat="37.185264" lon="-3.187366">
        <ele>1286.9</ele>
        <time>2021-10-17T07:15:58Z</time>
      </trkpt>
      <trkpt lat="37.185376" lon="-3.187630">
        <ele>1285.4</ele>
        <time>2021-10-17T07:16:21Z</time>
      </trkpt>
      <trkpt lat="37.185409" lon="-3.187912">
        <ele>1284.9</ele>
        <time>2021-10-17T07:16:43Z</time>
      </trkpt>
      <trkpt lat="37.185481" lon="-3.188172">
        <ele>1291.2</ele>
        <time>2021-10-17T07:17:13Z</time>
      </trkpt>
      <trkpt lat="37.185523" lon="-3.188428">
        <ele>1299.8</ele>
        <time>2021-10-17T07:17:43Z</time>
      </trkpt>
      <trkpt lat="37.185604" lon="-3.188652">
        <ele>1302.7</ele>
        <time>2021-10-17T07:18:19Z</time>
      </trkpt>
      <trkpt lat="37.185652" lon="-3.188961">
        <ele>1310.4</ele>
        <time>2021-10-17T07:18:56Z</time>
      </trkpt>
      <trkpt lat="37.185568" lon="-3.189164">
        <ele>1313.8</ele>
        <time>2021-10-17T07:19:27Z</time>
      </trkpt>
      <trkpt lat="37.185385" lon="-3.189253">
        <ele>1322.9</ele>
        <time>2021-10-17T07:20:03Z</time>
      </trkpt>
      <trkpt lat="37.185226" lon="-3.189363">
        <ele>1326.8</ele>
        <time>2021-10-17T07:22:02Z</time>
      </trkpt>
      <trkpt lat="37.185211" lon="-3.189615">
        <ele>1331.1</ele>
        <time>2021-10-17T07:22:59Z</time>
      </trkpt>
      <trkpt lat="37.185207" lon="-3.189892">
        <ele>1335.4</ele>
        <time>2021-10-17T07:23:31Z</time>
      </trkpt>
      <trkpt lat="37.185148" lon="-3.190165">
        <ele>1344.1</ele>
        <time>2021-10-17T07:25:09Z</time>
      </trkpt>
      <trkpt lat="37.185124" lon="-3.190402">
        <ele>1350.3</ele>
        <time>2021-10-17T07:27:58Z</time>
      </trkpt>
      <trkpt lat="37.185148" lon="-3.190635">
        <ele>1353.7</ele>
        <time>2021-10-17T07:29:06Z</time>
      </trkpt>
      <trkpt lat="37.185166" lon="-3.190899">
        <ele>1359.4</ele>
        <time>2021-10-17T07:29:43Z</time>
      </trkpt>
      <trkpt lat="37.185170" lon="-3.191214">
        <ele>1367.1</ele>
        <time>2021-10-17T07:30:20Z</time>
      </trkpt>
      <trkpt lat="37.185237" lon="-3.191478">
        <ele>1370.5</ele>
        <time>2021-10-17T07:30:48Z</time>
      </trkpt>
      <trkpt lat="37.185280" lon="-3.191773">
        <ele>1374.3</ele>
        <time>2021-10-17T07:31:22Z</time>
      </trkpt>
      <trkpt lat="37.185262" lon="-3.192098">
        <ele>1379.1</ele>
        <time>2021-10-17T07:31:51Z</time>
      </trkpt>
      <trkpt lat="37.185266" lon="-3.192365">
        <ele>1383.0</ele>
        <time>2021-10-17T07:32:20Z</time>
      </trkpt>
      <trkpt lat="37.185317" lon="-3.192606">
        <ele>1388.8</ele>
        <time>2021-10-17T07:32:48Z</time>
      </trkpt>
      <trkpt lat="37.185382" lon="-3.192802">
        <ele>1392.1</ele>
        <time>2021-10-17T07:33:25Z</time>
      </trkpt>
      <trkpt lat="37.185382" lon="-3.193044">
        <ele>1397.9</ele>
        <time>2021-10-17T07:33:55Z</time>
      </trkpt>
      <trkpt lat="37.185405" lon="-3.193291">
        <ele>1402.2</ele>
        <time>2021-10-17T07:34:26Z</time>
      </trkpt>
      <trkpt lat="37.185408" lon="-3.193554">
        <ele>1403.7</ele>
        <time>2021-10-17T07:34:57Z</time>
      </trkpt>
      <trkpt lat="37.185435" lon="-3.193813">
        <ele>1411.4</ele>
        <time>2021-10-17T07:35:33Z</time>
      </trkpt>
      <trkpt lat="37.185422" lon="-3.194106">
        <ele>1420.5</ele>
        <time>2021-10-17T07:36:15Z</time>
      </trkpt>
      <trkpt lat="37.185399" lon="-3.194360">
        <ele>1427.7</ele>
        <time>2021-10-17T07:36:49Z</time>
      </trkpt>
      <trkpt lat="37.185424" lon="-3.194615">
        <ele>1430.1</ele>
        <time>2021-10-17T07:37:19Z</time>
      </trkpt>
      <trkpt lat="37.185405" lon="-3.194865">
        <ele>1439.7</ele>
        <time>2021-10-17T07:37:54Z</time>
      </trkpt>
      <trkpt lat="37.185386" lon="-3.195151">
        <ele>1446.4</ele>
        <time>2021-10-17T07:38:55Z</time>
      </trkpt>
      <trkpt lat="37.185419" lon="-3.195446">
        <ele>1453.2</ele>
        <time>2021-10-17T07:39:53Z</time>
      </trkpt>
      <trkpt lat="37.185419" lon="-3.195705">
        <ele>1458.5</ele>
        <time>2021-10-17T07:40:31Z</time>
      </trkpt>
      <trkpt lat="37.185429" lon="-3.195967">
        <ele>1463.3</ele>
        <time>2021-10-17T07:41:04Z</time>
      </trkpt>
      <trkpt lat="37.185478" lon="-3.196242">
        <ele>1468.1</ele>
        <time>2021-10-17T07:41:38Z</time>
      </trkpt>
      <trkpt lat="37.185474" lon="-3.196540">
        <ele>1474.8</ele>
        <time>2021-10-17T07:42:21Z</time>
      </trkpt>
      <trkpt lat="37.185461" lon="-3.196827">
        <ele>1481.0</ele>
        <time>2021-10-17T07:43:08Z</time>
      </trkpt>
      <trkpt lat="37.185474" lon="-3.197099">
        <ele>1489.2</ele>
        <time>2021-10-17T07:43:46Z</time>
      </trkpt>
      <trkpt lat="37.185526" lon="-3.197326">
        <ele>1493.5</ele>
        <time>2021-10-17T07:44:23Z</time>
      </trkpt>
      <trkpt lat="37.185549" lon="-3.197594">
        <ele>1499.8</ele>
        <time>2021-10-17T07:45:02Z</time>
      </trkpt>
      <trkpt lat="37.185572" lon="-3.197874">
        <ele>1508.4</ele>
        <time>2021-10-17T07:45:42Z</time>
      </trkpt>
      <trkpt lat="37.185578" lon="-3.198266">
        <ele>1516.1</ele>
        <time>2021-10-17T07:46:28Z</time>
      </trkpt>
      <trkpt lat="37.185563" lon="-3.198547">
        <ele>1520.9</ele>
        <time>2021-10-17T07:47:10Z</time>
      </trkpt>
      <trkpt lat="37.185546" lon="-3.198814">
        <ele>1525.7</ele>
        <time>2021-10-17T07:47:46Z</time>
      </trkpt>
      <trkpt lat="37.185561" lon="-3.199107">
        <ele>1534.4</ele>
        <time>2021-10-17T07:48:24Z</time>
      </trkpt>
      <trkpt lat="37.185499" lon="-3.199360">
        <ele>1535.4</ele>
        <time>2021-10-17T07:49:20Z</time>
      </trkpt>
      <trkpt lat="37.185501" lon="-3.199593">
        <ele>1540.2</ele>
        <time>2021-10-17T07:50:06Z</time>
      </trkpt>
      <trkpt lat="37.185499" lon="-3.199820">
        <ele>1545.0</ele>
        <time>2021-10-17T07:50:28Z</time>
      </trkpt>
      <trkpt lat="37.185480" lon="-3.199887">
        <ele>1544.0</ele>
        <time>2021-10-17T07:52:31Z</time>
      </trkpt>
      <trkpt lat="37.185595" lon="-3.200048">
        <ele>1553.1</ele>
        <time>2021-10-17T07:53:06Z</time>
      </trkpt>
      <trkpt lat="37.185768" lon="-3.200166">
        <ele>1555.1</ele>
        <time>2021-10-17T07:53:43Z</time>
      </trkpt>
      <trkpt lat="37.185926" lon="-3.200295">
        <ele>1557.5</ele>
        <time>2021-10-17T07:54:19Z</time>
      </trkpt>
      <trkpt lat="37.186075" lon="-3.200404">
        <ele>1564.2</ele>
        <time>2021-10-17T07:54:51Z</time>
      </trkpt>
      <trkpt lat="37.186195" lon="-3.200617">
        <ele>1568.5</ele>
        <time>2021-10-17T07:55:52Z</time>
      </trkpt>
      <trkpt lat="37.186337" lon="-3.200768">
        <ele>1575.7</ele>
        <time>2021-10-17T07:56:32Z</time>
      </trkpt>
      <trkpt lat="37.186425" lon="-3.200971">
        <ele>1581.0</ele>
        <time>2021-10-17T07:57:03Z</time>
      </trkpt>
      <trkpt lat="37.186576" lon="-3.201150">
        <ele>1586.8</ele>
        <time>2021-10-17T07:57:34Z</time>
      </trkpt>
      <trkpt lat="37.186721" lon="-3.201287">
        <ele>1591.6</ele>
        <time>2021-10-17T07:58:07Z</time>
      </trkpt>
      <trkpt lat="37.186852" lon="-3.201465">
        <ele>1595.9</ele>
        <time>2021-10-17T07:58:34Z</time>
      </trkpt>
      <trkpt lat="37.187002" lon="-3.201621">
        <ele>1599.8</ele>
        <time>2021-10-17T07:59:14Z</time>
      </trkpt>
      <trkpt lat="37.187122" lon="-3.201794">
        <ele>1605.1</ele>
        <time>2021-10-17T07:59:40Z</time>
      </trkpt>
      <trkpt lat="37.187275" lon="-3.201884">
        <ele>1607.5</ele>
        <time>2021-10-17T08:00:01Z</time>
      </trkpt>
      <trkpt lat="37.187407" lon="-3.202067">
        <ele>1611.8</ele>
        <time>2021-10-17T08:00:43Z</time>
      </trkpt>
      <trkpt lat="37.187562" lon="-3.202250">
        <ele>1616.6</ele>
        <time>2021-10-17T08:01:11Z</time>
      </trkpt>
      <trkpt lat="37.187713" lon="-3.202423">
        <ele>1620.0</ele>
        <time>2021-10-17T08:01:37Z</time>
      </trkpt>
      <trkpt lat="37.187822" lon="-3.202634">
        <ele>1623.8</ele>
        <time>2021-10-17T08:02:22Z</time>
      </trkpt>
      <trkpt lat="37.187770" lon="-3.202858">
        <ele>1626.7</ele>
        <time>2021-10-17T08:02:45Z</time>
      </trkpt>
      <trkpt lat="37.187643" lon="-3.203034">
        <ele>1629.1</ele>
        <time>2021-10-17T08:03:08Z</time>
      </trkpt>
      <trkpt lat="37.187623" lon="-3.203086">
        <ele>1632.0</ele>
        <time>2021-10-17T08:06:11Z</time>
      </trkpt>
      <trkpt lat="37.187778" lon="-3.203053">
        <ele>1631.0</ele>
        <time>2021-10-17T08:07:09Z</time>
      </trkpt>
      <trkpt lat="37.187612" lon="-3.203068">
        <ele>1632.9</ele>
        <time>2021-10-17T08:07:56Z</time>
      </trkpt>
      <trkpt lat="37.187767" lon="-3.203030">
        <ele>1632.0</ele>
        <time>2021-10-17T08:08:59Z</time>
      </trkpt>
      <trkpt lat="37.187940" lon="-3.203113">
        <ele>1632.9</ele>
        <time>2021-10-17T08:09:24Z</time>
      </trkpt>
      <trkpt lat="37.188086" lon="-3.203281">
        <ele>1636.8</ele>
        <time>2021-10-17T08:09:52Z</time>
      </trkpt>
      <trkpt lat="37.188166" lon="-3.203514">
        <ele>1642.1</ele>
        <time>2021-10-17T08:10:21Z</time>
      </trkpt>
      <trkpt lat="37.188252" lon="-3.203740">
        <ele>1645.0</ele>
        <time>2021-10-17T08:10:52Z</time>
      </trkpt>
      <trkpt lat="37.188390" lon="-3.203917">
        <ele>1650.2</ele>
        <time>2021-10-17T08:11:31Z</time>
      </trkpt>
      <trkpt lat="37.188551" lon="-3.204067">
        <ele>1655.0</ele>
        <time>2021-10-17T08:12:11Z</time>
      </trkpt>
      <trkpt lat="37.188667" lon="-3.204306">
        <ele>1659.4</ele>
        <time>2021-10-17T08:12:52Z</time>
      </trkpt>
      <trkpt lat="37.188815" lon="-3.204481">
        <ele>1664.7</ele>
        <time>2021-10-17T08:13:22Z</time>
      </trkpt>
      <trkpt lat="37.188807" lon="-3.204709">
        <ele>1667.5</ele>
        <time>2021-10-17T08:13:45Z</time>
      </trkpt>
      <trkpt lat="37.188796" lon="-3.204944">
        <ele>1669.0</ele>
        <time>2021-10-17T08:14:04Z</time>
      </trkpt>
      <trkpt lat="37.188823" lon="-3.205167">
        <ele>1672.4</ele>
        <time>2021-10-17T08:14:36Z</time>
      </trkpt>
      <trkpt lat="37.188959" lon="-3.205317">
        <ele>1676.2</ele>
        <time>2021-10-17T08:15:14Z</time>
      </trkpt>
      <trkpt lat="37.189065" lon="-3.205538">
        <ele>1683.4</ele>
        <time>2021-10-17T08:15:49Z</time>
      </trkpt>
      <trkpt lat="37.189103" lon="-3.205774">
        <ele>1687.3</ele>
        <time>2021-10-17T08:16:15Z</time>
      </trkpt>
      <trkpt lat="37.189225" lon="-3.205915">
        <ele>1692.5</ele>
        <time>2021-10-17T08:16:48Z</time>
      </trkpt>
      <trkpt lat="37.189350" lon="-3.206062">
        <ele>1697.8</ele>
        <time>2021-10-17T08:17:14Z</time>
      </trkpt>
      <trkpt lat="37.189474" lon="-3.206255">
        <ele>1701.2</ele>
        <time>2021-10-17T08:17:42Z</time>
      </trkpt>
      <trkpt lat="37.189484" lon="-3.206532">
        <ele>1704.1</ele>
        <time>2021-10-17T08:18:08Z</time>
      </trkpt>
      <trkpt lat="37.189452" lon="-3.206875">
        <ele>1707.4</ele>
        <time>2021-10-17T08:18:57Z</time>
      </trkpt>
      <trkpt lat="37.189450" lon="-3.207148">
        <ele>1707.9</ele>
        <time>2021-10-17T08:19:18Z</time>
      </trkpt>
      <trkpt lat="37.189479" lon="-3.207394">
        <ele>1709.8</ele>
        <time>2021-10-17T08:19:36Z</time>
      </trkpt>
      <trkpt lat="37.189541" lon="-3.207648">
        <ele>1709.4</ele>
        <time>2021-10-17T08:19:53Z</time>
      </trkpt>
      <trkpt lat="37.189590" lon="-3.207891">
        <ele>1710.8</ele>
        <time>2021-10-17T08:20:08Z</time>
      </trkpt>
      <trkpt lat="37.189687" lon="-3.208073">
        <ele>1710.8</ele>
        <time>2021-10-17T08:20:43Z</time>
      </trkpt>
      <trkpt lat="37.189745" lon="-3.208261">
        <ele>1710.8</ele>
        <time>2021-10-17T08:21:58Z</time>
      </trkpt>
      <trkpt lat="37.189791" lon="-3.208478">
        <ele>1713.2</ele>
        <time>2021-10-17T08:22:55Z</time>
      </trkpt>
      <trkpt lat="37.189804" lon="-3.208728">
        <ele>1714.6</ele>
        <time>2021-10-17T08:23:15Z</time>
      </trkpt>
      <trkpt lat="37.189775" lon="-3.208962">
        <ele>1718.0</ele>
        <time>2021-10-17T08:23:35Z</time>
      </trkpt>
      <trkpt lat="37.189752" lon="-3.209147">
        <ele>1721.4</ele>
        <time>2021-10-17T08:25:12Z</time>
      </trkpt>
      <trkpt lat="37.189733" lon="-3.209364">
        <ele>1722.3</ele>
        <time>2021-10-17T08:25:33Z</time>
      </trkpt>
      <trkpt lat="37.189731" lon="-3.209598">
        <ele>1724.7</ele>
        <time>2021-10-17T08:25:53Z</time>
      </trkpt>
      <trkpt lat="37.189682" lon="-3.209818">
        <ele>1727.1</ele>
        <time>2021-10-17T08:26:15Z</time>
      </trkpt>
      <trkpt lat="37.189647" lon="-3.210050">
        <ele>1729.5</ele>
        <time>2021-10-17T08:26:41Z</time>
      </trkpt>
      <trkpt lat="37.189566" lon="-3.210239">
        <ele>1734.8</ele>
        <time>2021-10-17T08:27:18Z</time>
      </trkpt>
      <trkpt lat="37.189493" lon="-3.210438">
        <ele>1741.6</ele>
        <time>2021-10-17T08:27:56Z</time>
      </trkpt>
      <trkpt lat="37.189466" lon="-3.210654">
        <ele>1745.9</ele>
        <time>2021-10-17T08:28:51Z</time>
      </trkpt>
      <trkpt lat="37.189412" lon="-3.210845">
        <ele>1750.2</ele>
        <time>2021-10-17T08:30:38Z</time>
      </trkpt>
      <trkpt lat="37.189303" lon="-3.211014">
        <ele>1755.5</ele>
        <time>2021-10-17T08:31:20Z</time>
      </trkpt>
      <trkpt lat="37.189171" lon="-3.211165">
        <ele>1763.2</ele>
        <time>2021-10-17T08:31:54Z</time>
      </trkpt>
      <trkpt lat="37.189014" lon="-3.211266">
        <ele>1769.0</ele>
        <time>2021-10-17T08:32:26Z</time>
      </trkpt>
      <trkpt lat="37.188867" lon="-3.211408">
        <ele>1775.7</ele>
        <time>2021-10-17T08:33:00Z</time>
      </trkpt>
      <trkpt lat="37.188714" lon="-3.211482">
        <ele>1781.0</ele>
        <time>2021-10-17T08:33:48Z</time>
      </trkpt>
      <trkpt lat="37.188560" lon="-3.211590">
        <ele>1786.7</ele>
        <time>2021-10-17T08:34:52Z</time>
      </trkpt>
      <trkpt lat="37.188408" lon="-3.211681">
        <ele>1792.0</ele>
        <time>2021-10-17T08:35:39Z</time>
      </trkpt>
      <trkpt lat="37.188266" lon="-3.211805">
        <ele>1799.2</ele>
        <time>2021-10-17T08:36:12Z</time>
      </trkpt>
      <trkpt lat="37.188106" lon="-3.211890">
        <ele>1808.9</ele>
        <time>2021-10-17T08:36:57Z</time>
      </trkpt>
      <trkpt lat="37.187948" lon="-3.211969">
        <ele>1815.1</ele>
        <time>2021-10-17T08:37:30Z</time>
      </trkpt>
      <trkpt lat="37.187779" lon="-3.211967">
        <ele>1819.9</ele>
        <time>2021-10-17T08:38:02Z</time>
      </trkpt>
      <trkpt lat="37.187623" lon="-3.211955">
        <ele>1824.7</ele>
        <time>2021-10-17T08:38:36Z</time>
      </trkpt>
      <trkpt lat="37.187485" lon="-3.212089">
        <ele>1830.0</ele>
        <time>2021-10-17T08:39:05Z</time>
      </trkpt>
      <trkpt lat="37.187347" lon="-3.212223">
        <ele>1835.3</ele>
        <time>2021-10-17T08:39:32Z</time>
      </trkpt>
      <trkpt lat="37.187221" lon="-3.212364">
        <ele>1840.1</ele>
        <time>2021-10-17T08:39:58Z</time>
      </trkpt>
      <trkpt lat="37.187098" lon="-3.212513">
        <ele>1845.4</ele>
        <time>2021-10-17T08:40:23Z</time>
      </trkpt>
      <trkpt lat="37.187005" lon="-3.212689">
        <ele>1850.2</ele>
        <time>2021-10-17T08:40:58Z</time>
      </trkpt>
      <trkpt lat="37.186897" lon="-3.212874">
        <ele>1851.6</ele>
        <time>2021-10-17T08:41:16Z</time>
      </trkpt>
      <trkpt lat="37.186821" lon="-3.212986">
        <ele>1853.6</ele>
        <time>2021-10-17T08:44:06Z</time>
      </trkpt>
      <trkpt lat="37.186825" lon="-3.212980">
        <ele>1858.8</ele>
        <time>2021-10-17T08:46:32Z</time>
      </trkpt>
      <trkpt lat="37.186752" lon="-3.213061">
        <ele>1858.4</ele>
        <time>2021-10-17T08:48:24Z</time>
      </trkpt>
      <trkpt lat="37.186636" lon="-3.213026">
        <ele>1854.0</ele>
        <time>2021-10-17T08:49:11Z</time>
      </trkpt>
      <trkpt lat="37.186527" lon="-3.213097">
        <ele>1855.0</ele>
        <time>2021-10-17T08:51:24Z</time>
      </trkpt>
      <trkpt lat="37.186526" lon="-3.213096">
        <ele>1858.4</ele>
        <time>2021-10-17T09:01:31Z</time>
      </trkpt>
      <trkpt lat="37.186567" lon="-3.213224">
        <ele>1855.5</ele>
        <time>2021-10-17T09:05:59Z</time>
      </trkpt>
      <trkpt lat="37.186629" lon="-3.213444">
        <ele>1856.0</ele>
        <time>2021-10-17T09:06:18Z</time>
      </trkpt>
      <trkpt lat="37.186626" lon="-3.213680">
        <ele>1856.4</ele>
        <time>2021-10-17T09:06:40Z</time>
      </trkpt>
      <trkpt lat="37.186646" lon="-3.213927">
        <ele>1855.5</ele>
        <time>2021-10-17T09:07:00Z</time>
      </trkpt>
      <trkpt lat="37.186586" lon="-3.214189">
        <ele>1854.5</ele>
        <time>2021-10-17T09:07:21Z</time>
      </trkpt>
      <trkpt lat="37.186548" lon="-3.214412">
        <ele>1853.6</ele>
        <time>2021-10-17T09:07:44Z</time>
      </trkpt>
      <trkpt lat="37.186488" lon="-3.214639">
        <ele>1856.0</ele>
        <time>2021-10-17T09:08:05Z</time>
      </trkpt>
      <trkpt lat="37.186500" lon="-3.214892">
        <ele>1855.5</ele>
        <time>2021-10-17T09:08:25Z</time>
      </trkpt>
      <trkpt lat="37.186477" lon="-3.215120">
        <ele>1854.5</ele>
        <time>2021-10-17T09:08:41Z</time>
      </trkpt>
      <trkpt lat="37.186458" lon="-3.215362">
        <ele>1854.5</ele>
        <time>2021-10-17T09:09:00Z</time>
      </trkpt>
      <trkpt lat="37.186456" lon="-3.215598">
        <ele>1853.6</ele>
        <time>2021-10-17T09:09:20Z</time>
      </trkpt>
      <trkpt lat="37.186494" lon="-3.215831">
        <ele>1853.1</ele>
        <time>2021-10-17T09:09:40Z</time>
      </trkpt>
      <trkpt lat="37.186571" lon="-3.216071">
        <ele>1852.1</ele>
        <time>2021-10-17T09:10:04Z</time>
      </trkpt>
      <trkpt lat="37.186731" lon="-3.216257">
        <ele>1852.1</ele>
        <time>2021-10-17T09:10:25Z</time>
      </trkpt>
      <trkpt lat="37.186769" lon="-3.216521">
        <ele>1851.6</ele>
        <time>2021-10-17T09:10:50Z</time>
      </trkpt>
      <trkpt lat="37.186749" lon="-3.216795">
        <ele>1850.7</ele>
        <time>2021-10-17T09:11:14Z</time>
      </trkpt>
      <trkpt lat="37.186634" lon="-3.217074">
        <ele>1849.7</ele>
        <time>2021-10-17T09:11:37Z</time>
      </trkpt>
      <trkpt lat="37.186428" lon="-3.217278">
        <ele>1847.8</ele>
        <time>2021-10-17T09:12:15Z</time>
      </trkpt>
      <trkpt lat="37.186203" lon="-3.217326">
        <ele>1847.3</ele>
        <time>2021-10-17T09:12:40Z</time>
      </trkpt>
      <trkpt lat="37.186057" lon="-3.217496">
        <ele>1846.3</ele>
        <time>2021-10-17T09:13:01Z</time>
      </trkpt>
      <trkpt lat="37.185996" lon="-3.217744">
        <ele>1843.9</ele>
        <time>2021-10-17T09:13:27Z</time>
      </trkpt>
      <trkpt lat="37.186028" lon="-3.217987">
        <ele>1844.4</ele>
        <time>2021-10-17T09:13:50Z</time>
      </trkpt>
      <trkpt lat="37.186013" lon="-3.218222">
        <ele>1843.0</ele>
        <time>2021-10-17T09:14:08Z</time>
      </trkpt>
      <trkpt lat="37.186031" lon="-3.218459">
        <ele>1842.0</ele>
        <time>2021-10-17T09:14:26Z</time>
      </trkpt>
      <trkpt lat="37.186016" lon="-3.218692">
        <ele>1843.0</ele>
        <time>2021-10-17T09:14:47Z</time>
      </trkpt>
      <trkpt lat="37.185949" lon="-3.218913">
        <ele>1842.5</ele>
        <time>2021-10-17T09:15:09Z</time>
      </trkpt>
      <trkpt lat="37.185855" lon="-3.219120">
        <ele>1841.1</ele>
        <time>2021-10-17T09:15:26Z</time>
      </trkpt>
      <trkpt lat="37.185772" lon="-3.219294">
        <ele>1843.0</ele>
        <time>2021-10-17T09:15:59Z</time>
      </trkpt>
      <trkpt lat="37.185653" lon="-3.219494">
        <ele>1843.0</ele>
        <time>2021-10-17T09:16:17Z</time>
      </trkpt>
      <trkpt lat="37.185507" lon="-3.219736">
        <ele>1843.0</ele>
        <time>2021-10-17T09:16:40Z</time>
      </trkpt>
      <trkpt lat="37.185396" lon="-3.220101">
        <ele>1843.0</ele>
        <time>2021-10-17T09:17:09Z</time>
      </trkpt>
      <trkpt lat="37.185311" lon="-3.220411">
        <ele>1841.1</ele>
        <time>2021-10-17T09:17:32Z</time>
      </trkpt>
      <trkpt lat="37.185231" lon="-3.220672">
        <ele>1841.1</ele>
        <time>2021-10-17T09:17:52Z</time>
      </trkpt>
      <trkpt lat="37.185164" lon="-3.220948">
        <ele>1841.5</ele>
        <time>2021-10-17T09:18:14Z</time>
      </trkpt>
      <trkpt lat="37.185060" lon="-3.221212">
        <ele>1841.1</ele>
        <time>2021-10-17T09:18:30Z</time>
      </trkpt>
      <trkpt lat="37.184950" lon="-3.221464">
        <ele>1840.1</ele>
        <time>2021-10-17T09:18:47Z</time>
      </trkpt>
      <trkpt lat="37.184839" lon="-3.221677">
        <ele>1839.1</ele>
        <time>2021-10-17T09:19:04Z</time>
      </trkpt>
      <trkpt lat="37.184751" lon="-3.221928">
        <ele>1837.7</ele>
        <time>2021-10-17T09:19:20Z</time>
      </trkpt>
      <trkpt lat="37.184670" lon="-3.222172">
        <ele>1838.2</ele>
        <time>2021-10-17T09:19:35Z</time>
      </trkpt>
      <trkpt lat="37.184598" lon="-3.222411">
        <ele>1839.6</ele>
        <time>2021-10-17T09:19:52Z</time>
      </trkpt>
      <trkpt lat="37.184516" lon="-3.222654">
        <ele>1840.1</ele>
        <time>2021-10-17T09:20:12Z</time>
      </trkpt>
      <trkpt lat="37.184403" lon="-3.222966">
        <ele>1842.0</ele>
        <time>2021-10-17T09:20:52Z</time>
      </trkpt>
      <trkpt lat="37.184322" lon="-3.223246">
        <ele>1845.4</ele>
        <time>2021-10-17T09:21:19Z</time>
      </trkpt>
      <trkpt lat="37.184236" lon="-3.223508">
        <ele>1846.8</ele>
        <time>2021-10-17T09:21:41Z</time>
      </trkpt>
      <trkpt lat="37.184136" lon="-3.223777">
        <ele>1846.8</ele>
        <time>2021-10-17T09:22:01Z</time>
      </trkpt>
      <trkpt lat="37.184064" lon="-3.224020">
        <ele>1847.8</ele>
        <time>2021-10-17T09:22:35Z</time>
      </trkpt>
      <trkpt lat="37.184032" lon="-3.224022">
        <ele>1846.8</ele>
        <time>2021-10-17T09:24:08Z</time>
      </trkpt>
      <trkpt lat="37.183934" lon="-3.224224">
        <ele>1847.3</ele>
        <time>2021-10-17T09:24:25Z</time>
      </trkpt>
      <trkpt lat="37.183846" lon="-3.224435">
        <ele>1847.3</ele>
        <time>2021-10-17T09:24:39Z</time>
      </trkpt>
      <trkpt lat="37.183780" lon="-3.224653">
        <ele>1848.8</ele>
        <time>2021-10-17T09:24:54Z</time>
      </trkpt>
      <trkpt lat="37.183679" lon="-3.224841">
        <ele>1848.8</ele>
        <time>2021-10-17T09:25:09Z</time>
      </trkpt>
      <trkpt lat="37.183618" lon="-3.224668">
        <ele>1848.8</ele>
        <time>2021-10-17T09:26:04Z</time>
      </trkpt>
      <trkpt lat="37.183654" lon="-3.224625">
        <ele>1847.3</ele>
        <time>2021-10-17T09:28:06Z</time>
      </trkpt>
      <trkpt lat="37.183592" lon="-3.224533">
        <ele>1847.8</ele>
        <time>2021-10-17T09:30:05Z</time>
      </trkpt>
      <trkpt lat="37.183404" lon="-3.224668">
        <ele>1849.2</ele>
        <time>2021-10-17T09:30:44Z</time>
      </trkpt>
      <trkpt lat="37.183215" lon="-3.224506">
        <ele>1843.9</ele>
        <time>2021-10-17T09:31:16Z</time>
      </trkpt>
      <trkpt lat="37.183175" lon="-3.224298">
        <ele>1840.6</ele>
        <time>2021-10-17T09:31:41Z</time>
      </trkpt>
      <trkpt lat="37.183184" lon="-3.224070">
        <ele>1838.2</ele>
        <time>2021-10-17T09:32:03Z</time>
      </trkpt>
      <trkpt lat="37.182993" lon="-3.223986">
        <ele>1830.0</ele>
        <time>2021-10-17T09:32:30Z</time>
      </trkpt>
      <trkpt lat="37.183029" lon="-3.223690">
        <ele>1829.5</ele>
        <time>2021-10-17T09:33:09Z</time>
      </trkpt>
      <trkpt lat="37.183101" lon="-3.223444">
        <ele>1830.5</ele>
        <time>2021-10-17T09:33:35Z</time>
      </trkpt>
      <trkpt lat="37.183155" lon="-3.223179">
        <ele>1834.8</ele>
        <time>2021-10-17T09:33:57Z</time>
      </trkpt>
      <trkpt lat="37.183250" lon="-3.222956">
        <ele>1837.2</ele>
        <time>2021-10-17T09:34:18Z</time>
      </trkpt>
      <trkpt lat="37.183352" lon="-3.222767">
        <ele>1838.7</ele>
        <time>2021-10-17T09:34:39Z</time>
      </trkpt>
      <trkpt lat="37.183374" lon="-3.222541">
        <ele>1838.7</ele>
        <time>2021-10-17T09:35:11Z</time>
      </trkpt>
      <trkpt lat="37.183450" lon="-3.222320">
        <ele>1838.2</ele>
        <time>2021-10-17T09:35:34Z</time>
      </trkpt>
      <trkpt lat="37.183551" lon="-3.222132">
        <ele>1837.7</ele>
        <time>2021-10-17T09:36:01Z</time>
      </trkpt>
      <trkpt lat="37.183694" lon="-3.221971">
        <ele>1836.7</ele>
        <time>2021-10-17T09:36:20Z</time>
      </trkpt>
      <trkpt lat="37.183848" lon="-3.221810">
        <ele>1835.8</ele>
        <time>2021-10-17T09:36:39Z</time>
      </trkpt>
      <trkpt lat="37.183767" lon="-3.221618">
        <ele>1832.4</ele>
        <time>2021-10-17T09:37:07Z</time>
      </trkpt>
      <trkpt lat="37.183628" lon="-3.221436">
        <ele>1829.5</ele>
        <time>2021-10-17T09:37:35Z</time>
      </trkpt>
      <trkpt lat="37.183490" lon="-3.221274">
        <ele>1823.3</ele>
        <time>2021-10-17T09:37:56Z</time>
      </trkpt>
      <trkpt lat="37.183336" lon="-3.221091">
        <ele>1820.4</ele>
        <time>2021-10-17T09:38:24Z</time>
      </trkpt>
      <trkpt lat="37.183124" lon="-3.220908">
        <ele>1816.5</ele>
        <time>2021-10-17T09:38:49Z</time>
      </trkpt>
      <trkpt lat="37.182962" lon="-3.220703">
        <ele>1813.2</ele>
        <time>2021-10-17T09:39:26Z</time>
      </trkpt>
      <trkpt lat="37.182757" lon="-3.220573">
        <ele>1807.9</ele>
        <time>2021-10-17T09:40:20Z</time>
      </trkpt>
      <trkpt lat="37.182546" lon="-3.220451">
        <ele>1804.1</ele>
        <time>2021-10-17T09:41:05Z</time>
      </trkpt>
      <trkpt lat="37.182428" lon="-3.220386">
        <ele>1802.6</ele>
        <time>2021-10-17T09:44:46Z</time>
      </trkpt>
      <trkpt lat="37.182279" lon="-3.220328">
        <ele>1799.2</ele>
        <time>2021-10-17T09:45:09Z</time>
      </trkpt>
      <trkpt lat="37.182145" lon="-3.220260">
        <ele>1795.9</ele>
        <time>2021-10-17T09:45:38Z</time>
      </trkpt>
      <trkpt lat="37.182023" lon="-3.220094">
        <ele>1790.1</ele>
        <time>2021-10-17T09:46:04Z</time>
      </trkpt>
      <trkpt lat="37.181919" lon="-3.219897">
        <ele>1785.8</ele>
        <time>2021-10-17T09:46:34Z</time>
      </trkpt>
      <trkpt lat="37.181853" lon="-3.219699">
        <ele>1780.0</ele>
        <time>2021-10-17T09:46:57Z</time>
      </trkpt>
      <trkpt lat="37.181783" lon="-3.219533">
        <ele>1771.4</ele>
        <time>2021-10-17T09:48:06Z</time>
      </trkpt>
      <trkpt lat="37.181791" lon="-3.219339">
        <ele>1766.6</ele>
        <time>2021-10-17T09:48:48Z</time>
      </trkpt>
      <trkpt lat="37.181949" lon="-3.219203">
        <ele>1767.0</ele>
        <time>2021-10-17T09:49:27Z</time>
      </trkpt>
      <trkpt lat="37.182114" lon="-3.219148">
        <ele>1766.1</ele>
        <time>2021-10-17T09:50:48Z</time>
      </trkpt>
      <trkpt lat="37.182108" lon="-3.218817">
        <ele>1753.1</ele>
        <time>2021-10-17T09:52:03Z</time>
      </trkpt>
      <trkpt lat="37.182124" lon="-3.218559">
        <ele>1741.6</ele>
        <time>2021-10-17T09:53:18Z</time>
      </trkpt>
      <trkpt lat="37.182222" lon="-3.218389">
        <ele>1735.3</ele>
        <time>2021-10-17T09:54:06Z</time>
      </trkpt>
      <trkpt lat="37.182388" lon="-3.218137">
        <ele>1731.0</ele>
        <time>2021-10-17T09:55:27Z</time>
      </trkpt>
      <trkpt lat="37.182252" lon="-3.217853">
        <ele>1726.2</ele>
        <time>2021-10-17T09:56:25Z</time>
      </trkpt>
      <trkpt lat="37.182091" lon="-3.217638">
        <ele>1727.6</ele>
        <time>2021-10-17T09:56:46Z</time>
      </trkpt>
      <trkpt lat="37.181911" lon="-3.217443">
        <ele>1725.2</ele>
        <time>2021-10-17T09:57:05Z</time>
      </trkpt>
      <trkpt lat="37.181773" lon="-3.217267">
        <ele>1722.8</ele>
        <time>2021-10-17T09:57:20Z</time>
      </trkpt>
      <trkpt lat="37.181666" lon="-3.217065">
        <ele>1718.5</ele>
        <time>2021-10-17T09:57:48Z</time>
      </trkpt>
      <trkpt lat="37.181675" lon="-3.216820">
        <ele>1714.6</ele>
        <time>2021-10-17T09:58:10Z</time>
      </trkpt>
      <trkpt lat="37.181703" lon="-3.216573">
        <ele>1712.2</ele>
        <time>2021-10-17T09:58:27Z</time>
      </trkpt>
      <trkpt lat="37.181601" lon="-3.216367">
        <ele>1702.2</ele>
        <time>2021-10-17T09:58:56Z</time>
      </trkpt>
      <trkpt lat="37.181452" lon="-3.216117">
        <ele>1694.9</ele>
        <time>2021-10-17T09:59:30Z</time>
      </trkpt>
      <trkpt lat="37.181256" lon="-3.216242">
        <ele>1688.7</ele>
        <time>2021-10-17T10:00:15Z</time>
      </trkpt>
      <trkpt lat="37.181264" lon="-3.216208">
        <ele>1688.7</ele>
        <time>2021-10-17T10:00:45Z</time>
      </trkpt>
      <trkpt lat="37.181263" lon="-3.216256">
        <ele>1689.7</ele>
        <time>2021-10-17T10:01:25Z</time>
      </trkpt>
      <trkpt lat="37.181231" lon="-3.216509">
        <ele>1689.7</ele>
        <time>2021-10-17T10:01:43Z</time>
      </trkpt>
      <trkpt lat="37.181204" lon="-3.216740">
        <ele>1686.3</ele>
        <time>2021-10-17T10:01:59Z</time>
      </trkpt>
      <trkpt lat="37.181181" lon="-3.216972">
        <ele>1686.8</ele>
        <time>2021-10-17T10:02:15Z</time>
      </trkpt>
      <trkpt lat="37.181160" lon="-3.217213">
        <ele>1687.3</ele>
        <time>2021-10-17T10:02:32Z</time>
      </trkpt>
      <trkpt lat="37.181117" lon="-3.217446">
        <ele>1686.3</ele>
        <time>2021-10-17T10:02:46Z</time>
      </trkpt>
      <trkpt lat="37.180950" lon="-3.217543">
        <ele>1686.3</ele>
        <time>2021-10-17T10:03:00Z</time>
      </trkpt>
      <trkpt lat="37.180747" lon="-3.217608">
        <ele>1686.3</ele>
        <time>2021-10-17T10:03:17Z</time>
      </trkpt>
      <trkpt lat="37.180575" lon="-3.217750">
        <ele>1686.3</ele>
        <time>2021-10-17T10:03:34Z</time>
      </trkpt>
      <trkpt lat="37.180407" lon="-3.217932">
        <ele>1683.9</ele>
        <time>2021-10-17T10:03:49Z</time>
      </trkpt>
      <trkpt lat="37.180248" lon="-3.218094">
        <ele>1683.9</ele>
        <time>2021-10-17T10:04:04Z</time>
      </trkpt>
      <trkpt lat="37.180100" lon="-3.218283">
        <ele>1682.9</ele>
        <time>2021-10-17T10:04:20Z</time>
      </trkpt>
      <trkpt lat="37.180035" lon="-3.218535">
        <ele>1682.4</ele>
        <time>2021-10-17T10:04:35Z</time>
      </trkpt>
      <trkpt lat="37.179995" lon="-3.218768">
        <ele>1681.0</ele>
        <time>2021-10-17T10:04:50Z</time>
      </trkpt>
      <trkpt lat="37.179953" lon="-3.219002">
        <ele>1682.0</ele>
        <time>2021-10-17T10:05:05Z</time>
      </trkpt>
      <trkpt lat="37.179893" lon="-3.219234">
        <ele>1680.0</ele>
        <time>2021-10-17T10:05:20Z</time>
      </trkpt>
      <trkpt lat="37.179705" lon="-3.219216">
        <ele>1679.6</ele>
        <time>2021-10-17T10:05:34Z</time>
      </trkpt>
      <trkpt lat="37.179509" lon="-3.219149">
        <ele>1678.1</ele>
        <time>2021-10-17T10:05:48Z</time>
      </trkpt>
      <trkpt lat="37.179313" lon="-3.219174">
        <ele>1678.6</ele>
        <time>2021-10-17T10:06:04Z</time>
      </trkpt>
      <trkpt lat="37.179139" lon="-3.219283">
        <ele>1678.6</ele>
        <time>2021-10-17T10:07:20Z</time>
      </trkpt>
      <trkpt lat="37.179121" lon="-3.219355">
        <ele>1678.1</ele>
        <time>2021-10-17T10:08:53Z</time>
      </trkpt>
      <trkpt lat="37.179273" lon="-3.219177">
        <ele>1680.0</ele>
        <time>2021-10-17T10:09:10Z</time>
      </trkpt>
      <trkpt lat="37.179450" lon="-3.219128">
        <ele>1680.0</ele>
        <time>2021-10-17T10:09:26Z</time>
      </trkpt>
      <trkpt lat="37.179639" lon="-3.219199">
        <ele>1680.0</ele>
        <time>2021-10-17T10:09:42Z</time>
      </trkpt>
      <trkpt lat="37.179835" lon="-3.219233">
        <ele>1680.0</ele>
        <time>2021-10-17T10:09:58Z</time>
      </trkpt>
      <trkpt lat="37.179951" lon="-3.219049">
        <ele>1681.5</ele>
        <time>2021-10-17T10:10:15Z</time>
      </trkpt>
      <trkpt lat="37.179982" lon="-3.218799">
        <ele>1681.5</ele>
        <time>2021-10-17T10:10:31Z</time>
      </trkpt>
      <trkpt lat="37.179993" lon="-3.218547">
        <ele>1682.0</ele>
        <time>2021-10-17T10:11:01Z</time>
      </trkpt>
      <trkpt lat="37.179927" lon="-3.218306">
        <ele>1675.2</ele>
        <time>2021-10-17T10:11:28Z</time>
      </trkpt>
      <trkpt lat="37.179728" lon="-3.218234">
        <ele>1666.6</ele>
        <time>2021-10-17T10:12:07Z</time>
      </trkpt>
      <trkpt lat="37.179640" lon="-3.218071">
        <ele>1662.7</ele>
        <time>2021-10-17T10:12:49Z</time>
      </trkpt>
      <trkpt lat="37.179564" lon="-3.217835">
        <ele>1652.6</ele>
        <time>2021-10-17T10:13:30Z</time>
      </trkpt>
      <trkpt lat="37.179455" lon="-3.217618">
        <ele>1646.9</ele>
        <time>2021-10-17T10:14:02Z</time>
      </trkpt>
      <trkpt lat="37.179571" lon="-3.217384">
        <ele>1645.9</ele>
        <time>2021-10-17T10:14:21Z</time>
      </trkpt>
      <trkpt lat="37.179706" lon="-3.217059">
        <ele>1641.1</ele>
        <time>2021-10-17T10:14:52Z</time>
      </trkpt>
      <trkpt lat="37.179948" lon="-3.216794">
        <ele>1635.3</ele>
        <time>2021-10-17T10:15:16Z</time>
      </trkpt>
      <trkpt lat="37.180155" lon="-3.216533">
        <ele>1629.1</ele>
        <time>2021-10-17T10:15:39Z</time>
      </trkpt>
      <trkpt lat="37.180089" lon="-3.216239">
        <ele>1627.6</ele>
        <time>2021-10-17T10:16:07Z</time>
      </trkpt>
      <trkpt lat="37.179949" lon="-3.215749">
        <ele>1620.0</ele>
        <time>2021-10-17T10:17:07Z</time>
      </trkpt>
      <trkpt lat="37.179789" lon="-3.215494">
        <ele>1614.7</ele>
        <time>2021-10-17T10:18:15Z</time>
      </trkpt>
      <trkpt lat="37.179699" lon="-3.215348">
        <ele>1612.7</ele>
        <time>2021-10-17T10:19:05Z</time>
      </trkpt>
      <trkpt lat="37.179497" lon="-3.215267">
        <ele>1607.9</ele>
        <time>2021-10-17T10:19:34Z</time>
      </trkpt>
      <trkpt lat="37.179296" lon="-3.215201">
        <ele>1602.2</ele>
        <time>2021-10-17T10:20:05Z</time>
      </trkpt>
      <trkpt lat="37.179205" lon="-3.215362">
        <ele>1595.4</ele>
        <time>2021-10-17T10:20:25Z</time>
      </trkpt>
      <trkpt lat="37.178998" lon="-3.215210">
        <ele>1590.6</ele>
        <time>2021-10-17T10:20:58Z</time>
      </trkpt>
      <trkpt lat="37.178792" lon="-3.215065">
        <ele>1581.5</ele>
        <time>2021-10-17T10:21:27Z</time>
      </trkpt>
      <trkpt lat="37.178647" lon="-3.214899">
        <ele>1576.7</ele>
        <time>2021-10-17T10:21:53Z</time>
      </trkpt>
      <trkpt lat="37.178528" lon="-3.214683">
        <ele>1572.4</ele>
        <time>2021-10-17T10:22:16Z</time>
      </trkpt>
      <trkpt lat="37.178357" lon="-3.214369">
        <ele>1563.7</ele>
        <time>2021-10-17T10:22:55Z</time>
      </trkpt>
      <trkpt lat="37.178150" lon="-3.213987">
        <ele>1555.1</ele>
        <time>2021-10-17T10:24:05Z</time>
      </trkpt>
      <trkpt lat="37.178029" lon="-3.213736">
        <ele>1542.6</ele>
        <time>2021-10-17T10:25:22Z</time>
      </trkpt>
      <trkpt lat="37.177972" lon="-3.213396">
        <ele>1537.8</ele>
        <time>2021-10-17T10:27:27Z</time>
      </trkpt>
      <trkpt lat="37.177838" lon="-3.213044">
        <ele>1543.5</ele>
        <time>2021-10-17T10:29:00Z</time>
      </trkpt>
      <trkpt lat="37.177885" lon="-3.212754">
        <ele>1546.4</ele>
        <time>2021-10-17T10:30:17Z</time>
      </trkpt>
      <trkpt lat="37.177861" lon="-3.212469">
        <ele>1549.3</ele>
        <time>2021-10-17T10:31:00Z</time>
      </trkpt>
      <trkpt lat="37.177940" lon="-3.212262">
        <ele>1552.2</ele>
        <time>2021-10-17T10:31:21Z</time>
      </trkpt>
      <trkpt lat="37.177952" lon="-3.212005">
        <ele>1554.6</ele>
        <time>2021-10-17T10:31:44Z</time>
      </trkpt>
      <trkpt lat="37.177933" lon="-3.211736">
        <ele>1558.4</ele>
        <time>2021-10-17T10:32:05Z</time>
      </trkpt>
      <trkpt lat="37.177968" lon="-3.211477">
        <ele>1558.0</ele>
        <time>2021-10-17T10:32:27Z</time>
      </trkpt>
      <trkpt lat="37.177940" lon="-3.211192">
        <ele>1559.9</ele>
        <time>2021-10-17T10:32:49Z</time>
      </trkpt>
      <trkpt lat="37.177921" lon="-3.210853">
        <ele>1561.8</ele>
        <time>2021-10-17T10:33:23Z</time>
      </trkpt>
      <trkpt lat="37.177922" lon="-3.210579">
        <ele>1563.7</ele>
        <time>2021-10-17T10:33:50Z</time>
      </trkpt>
      <trkpt lat="37.177939" lon="-3.210282">
        <ele>1562.3</ele>
        <time>2021-10-17T10:34:13Z</time>
      </trkpt>
      <trkpt lat="37.177827" lon="-3.209960">
        <ele>1562.3</ele>
        <time>2021-10-17T10:34:45Z</time>
      </trkpt>
      <trkpt lat="37.177846" lon="-3.209689">
        <ele>1560.4</ele>
        <time>2021-10-17T10:35:05Z</time>
      </trkpt>
      <trkpt lat="37.177773" lon="-3.209329">
        <ele>1558.0</ele>
        <time>2021-10-17T10:35:32Z</time>
      </trkpt>
      <trkpt lat="37.177773" lon="-3.209055">
        <ele>1556.5</ele>
        <time>2021-10-17T10:36:07Z</time>
      </trkpt>
      <trkpt lat="37.177722" lon="-3.208765">
        <ele>1555.6</ele>
        <time>2021-10-17T10:36:32Z</time>
      </trkpt>
      <trkpt lat="37.177626" lon="-3.208491">
        <ele>1555.1</ele>
        <time>2021-10-17T10:36:51Z</time>
      </trkpt>
      <trkpt lat="37.177566" lon="-3.208233">
        <ele>1554.1</ele>
        <time>2021-10-17T10:37:11Z</time>
      </trkpt>
      <trkpt lat="37.177498" lon="-3.207975">
        <ele>1553.1</ele>
        <time>2021-10-17T10:37:34Z</time>
      </trkpt>
      <trkpt lat="37.177447" lon="-3.207718">
        <ele>1550.3</ele>
        <time>2021-10-17T10:37:56Z</time>
      </trkpt>
      <trkpt lat="37.177277" lon="-3.207576">
        <ele>1550.3</ele>
        <time>2021-10-17T10:38:13Z</time>
      </trkpt>
      <trkpt lat="37.177085" lon="-3.207516">
        <ele>1550.7</ele>
        <time>2021-10-17T10:38:31Z</time>
      </trkpt>
      <trkpt lat="37.176973" lon="-3.207352">
        <ele>1548.8</ele>
        <time>2021-10-17T10:39:06Z</time>
      </trkpt>
      <trkpt lat="37.176986" lon="-3.207070">
        <ele>1543.5</ele>
        <time>2021-10-17T10:40:01Z</time>
      </trkpt>
      <trkpt lat="37.177057" lon="-3.207008">
        <ele>1543.1</ele>
        <time>2021-10-17T10:40:40Z</time>
      </trkpt>
      <trkpt lat="37.176898" lon="-3.207072">
        <ele>1542.6</ele>
        <time>2021-10-17T10:41:11Z</time>
      </trkpt>
      <trkpt lat="37.176699" lon="-3.207042">
        <ele>1540.6</ele>
        <time>2021-10-17T10:42:54Z</time>
      </trkpt>
      <trkpt lat="37.176779" lon="-3.207127">
        <ele>1541.1</ele>
        <time>2021-10-17T10:45:43Z</time>
      </trkpt>
      <trkpt lat="37.176890" lon="-3.207083">
        <ele>1542.1</ele>
        <time>2021-10-17T10:54:09Z</time>
      </trkpt>
      <trkpt lat="37.176698" lon="-3.207165">
        <ele>1543.5</ele>
        <time>2021-10-17T10:55:22Z</time>
      </trkpt>
      <trkpt lat="37.176463" lon="-3.207139">
        <ele>1545.9</ele>
        <time>2021-10-17T10:55:46Z</time>
      </trkpt>
      <trkpt lat="37.176174" lon="-3.207170">
        <ele>1550.3</ele>
        <time>2021-10-17T10:56:21Z</time>
      </trkpt>
      <trkpt lat="37.175932" lon="-3.207394">
        <ele>1555.1</ele>
        <time>2021-10-17T10:57:05Z</time>
      </trkpt>
      <trkpt lat="37.175673" lon="-3.207750">
        <ele>1558.4</ele>
        <time>2021-10-17T10:58:11Z</time>
      </trkpt>
      <trkpt lat="37.175416" lon="-3.207935">
        <ele>1558.0</ele>
        <time>2021-10-17T10:58:43Z</time>
      </trkpt>
      <trkpt lat="37.175110" lon="-3.208011">
        <ele>1554.1</ele>
        <time>2021-10-17T10:59:25Z</time>
      </trkpt>
      <trkpt lat="37.175090" lon="-3.207909">
        <ele>1551.7</ele>
        <time>2021-10-17T11:00:31Z</time>
      </trkpt>
      <trkpt lat="37.175173" lon="-3.207853">
        <ele>1549.8</ele>
        <time>2021-10-17T11:01:20Z</time>
      </trkpt>
      <trkpt lat="37.175314" lon="-3.207654">
        <ele>1543.1</ele>
        <time>2021-10-17T11:02:15Z</time>
      </trkpt>
      <trkpt lat="37.175239" lon="-3.207743">
        <ele>1541.6</ele>
        <time>2021-10-17T11:05:24Z</time>
      </trkpt>
      <trkpt lat="37.175144" lon="-3.207498">
        <ele>1543.1</ele>
        <time>2021-10-17T11:10:23Z</time>
      </trkpt>
      <trkpt lat="37.175472" lon="-3.206765">
        <ele>1532.5</ele>
        <time>2021-10-17T11:12:29Z</time>
      </trkpt>
      <trkpt lat="37.175661" lon="-3.206336">
        <ele>1533.0</ele>
        <time>2021-10-17T11:13:27Z</time>
      </trkpt>
      <trkpt lat="37.175694" lon="-3.206058">
        <ele>1535.8</ele>
        <time>2021-10-17T11:13:53Z</time>
      </trkpt>
      <trkpt lat="37.175927" lon="-3.205726">
        <ele>1538.2</ele>
        <time>2021-10-17T11:14:23Z</time>
      </trkpt>
      <trkpt lat="37.176068" lon="-3.205495">
        <ele>1537.3</ele>
        <time>2021-10-17T11:14:43Z</time>
      </trkpt>
      <trkpt lat="37.176212" lon="-3.205205">
        <ele>1535.8</ele>
        <time>2021-10-17T11:15:03Z</time>
      </trkpt>
      <trkpt lat="37.176283" lon="-3.204977">
        <ele>1536.8</ele>
        <time>2021-10-17T11:15:19Z</time>
      </trkpt>
      <trkpt lat="37.176339" lon="-3.204683">
        <ele>1537.3</ele>
        <time>2021-10-17T11:15:35Z</time>
      </trkpt>
      <trkpt lat="37.176354" lon="-3.204450">
        <ele>1537.3</ele>
        <time>2021-10-17T11:15:51Z</time>
      </trkpt>
      <trkpt lat="37.176305" lon="-3.203974">
        <ele>1532.5</ele>
        <time>2021-10-17T11:16:49Z</time>
      </trkpt>
      <trkpt lat="37.176168" lon="-3.203641">
        <ele>1528.2</ele>
        <time>2021-10-17T11:17:17Z</time>
      </trkpt>
      <trkpt lat="37.176037" lon="-3.203357">
        <ele>1524.3</ele>
        <time>2021-10-17T11:17:35Z</time>
      </trkpt>
      <trkpt lat="37.175954" lon="-3.203067">
        <ele>1520.0</ele>
        <time>2021-10-17T11:17:53Z</time>
      </trkpt>
      <trkpt lat="37.175816" lon="-3.202744">
        <ele>1514.7</ele>
        <time>2021-10-17T11:18:14Z</time>
      </trkpt>
      <trkpt lat="37.175724" lon="-3.202488">
        <ele>1509.4</ele>
        <time>2021-10-17T11:19:21Z</time>
      </trkpt>
      <trkpt lat="37.175395" lon="-3.202331">
        <ele>1508.0</ele>
        <time>2021-10-17T11:19:51Z</time>
      </trkpt>
      <trkpt lat="37.175619" lon="-3.201979">
        <ele>1504.6</ele>
        <time>2021-10-17T11:21:36Z</time>
      </trkpt>
      <trkpt lat="37.175814" lon="-3.201647">
        <ele>1499.8</ele>
        <time>2021-10-17T11:22:39Z</time>
      </trkpt>
      <trkpt lat="37.175989" lon="-3.201390">
        <ele>1495.9</ele>
        <time>2021-10-17T11:23:07Z</time>
      </trkpt>
      <trkpt lat="37.176093" lon="-3.201179">
        <ele>1496.9</ele>
        <time>2021-10-17T11:23:25Z</time>
      </trkpt>
      <trkpt lat="37.176315" lon="-3.200950">
        <ele>1490.7</ele>
        <time>2021-10-17T11:24:07Z</time>
      </trkpt>
      <trkpt lat="37.176295" lon="-3.200645">
        <ele>1488.7</ele>
        <time>2021-10-17T11:24:36Z</time>
      </trkpt>
      <trkpt lat="37.176543" lon="-3.200531">
        <ele>1484.4</ele>
        <time>2021-10-17T11:24:58Z</time>
      </trkpt>
      <trkpt lat="37.176777" lon="-3.200390">
        <ele>1477.7</ele>
        <time>2021-10-17T11:25:25Z</time>
      </trkpt>
      <trkpt lat="37.176837" lon="-3.200181">
        <ele>1472.4</ele>
        <time>2021-10-17T11:25:47Z</time>
      </trkpt>
      <trkpt lat="37.177089" lon="-3.199768">
        <ele>1466.1</ele>
        <time>2021-10-17T11:27:08Z</time>
      </trkpt>
      <trkpt lat="37.177266" lon="-3.199599">
        <ele>1467.1</ele>
        <time>2021-10-17T11:27:44Z</time>
      </trkpt>
      <trkpt lat="37.177428" lon="-3.199489">
        <ele>1470.0</ele>
        <time>2021-10-17T11:28:02Z</time>
      </trkpt>
      <trkpt lat="37.177623" lon="-3.199326">
        <ele>1472.9</ele>
        <time>2021-10-17T11:29:39Z</time>
      </trkpt>
      <trkpt lat="37.177775" lon="-3.199162">
        <ele>1476.7</ele>
        <time>2021-10-17T11:30:01Z</time>
      </trkpt>
      <trkpt lat="37.177955" lon="-3.199055">
        <ele>1475.8</ele>
        <time>2021-10-17T11:30:19Z</time>
      </trkpt>
      <trkpt lat="37.178086" lon="-3.198880">
        <ele>1478.2</ele>
        <time>2021-10-17T11:30:37Z</time>
      </trkpt>
      <trkpt lat="37.178233" lon="-3.198703">
        <ele>1478.6</ele>
        <time>2021-10-17T11:30:55Z</time>
      </trkpt>
      <trkpt lat="37.178373" lon="-3.198534">
        <ele>1479.1</ele>
        <time>2021-10-17T11:31:11Z</time>
      </trkpt>
      <trkpt lat="37.178516" lon="-3.198378">
        <ele>1478.2</ele>
        <time>2021-10-17T11:31:27Z</time>
      </trkpt>
      <trkpt lat="37.178627" lon="-3.198188">
        <ele>1475.8</ele>
        <time>2021-10-17T11:31:42Z</time>
      </trkpt>
      <trkpt lat="37.178741" lon="-3.198005">
        <ele>1473.4</ele>
        <time>2021-10-17T11:31:57Z</time>
      </trkpt>
      <trkpt lat="37.178876" lon="-3.197837">
        <ele>1471.4</ele>
        <time>2021-10-17T11:32:19Z</time>
      </trkpt>
      <trkpt lat="37.179027" lon="-3.197684">
        <ele>1469.0</ele>
        <time>2021-10-17T11:33:19Z</time>
      </trkpt>
      <trkpt lat="37.179172" lon="-3.197541">
        <ele>1466.1</ele>
        <time>2021-10-17T11:33:35Z</time>
      </trkpt>
      <trkpt lat="37.179277" lon="-3.197358">
        <ele>1464.7</ele>
        <time>2021-10-17T11:34:02Z</time>
      </trkpt>
      <trkpt lat="37.179438" lon="-3.197218">
        <ele>1461.8</ele>
        <time>2021-10-17T11:34:18Z</time>
      </trkpt>
      <trkpt lat="37.179540" lon="-3.197032">
        <ele>1461.8</ele>
        <time>2021-10-17T11:34:41Z</time>
      </trkpt>
      <trkpt lat="37.179453" lon="-3.196837">
        <ele>1458.0</ele>
        <time>2021-10-17T11:35:07Z</time>
      </trkpt>
      <trkpt lat="37.179314" lon="-3.196654">
        <ele>1456.5</ele>
        <time>2021-10-17T11:35:28Z</time>
      </trkpt>
      <trkpt lat="37.179142" lon="-3.196541">
        <ele>1454.6</ele>
        <time>2021-10-17T11:35:46Z</time>
      </trkpt>
      <trkpt lat="37.179023" lon="-3.196353">
        <ele>1449.8</ele>
        <time>2021-10-17T11:36:02Z</time>
      </trkpt>
      <trkpt lat="37.179131" lon="-3.196138">
        <ele>1447.4</ele>
        <time>2021-10-17T11:36:18Z</time>
      </trkpt>
      <trkpt lat="37.179227" lon="-3.195934">
        <ele>1441.6</ele>
        <time>2021-10-17T11:36:39Z</time>
      </trkpt>
      <trkpt lat="37.179372" lon="-3.195804">
        <ele>1439.7</ele>
        <time>2021-10-17T11:36:58Z</time>
      </trkpt>
      <trkpt lat="37.179534" lon="-3.195679">
        <ele>1437.8</ele>
        <time>2021-10-17T11:37:14Z</time>
      </trkpt>
      <trkpt lat="37.179676" lon="-3.195509">
        <ele>1438.8</ele>
        <time>2021-10-17T11:37:57Z</time>
      </trkpt>
      <trkpt lat="37.179857" lon="-3.195429">
        <ele>1439.7</ele>
        <time>2021-10-17T11:38:21Z</time>
      </trkpt>
      <trkpt lat="37.180025" lon="-3.195310">
        <ele>1437.8</ele>
        <time>2021-10-17T11:38:39Z</time>
      </trkpt>
      <trkpt lat="37.180131" lon="-3.195120">
        <ele>1438.3</ele>
        <time>2021-10-17T11:38:54Z</time>
      </trkpt>
      <trkpt lat="37.180218" lon="-3.194904">
        <ele>1440.2</ele>
        <time>2021-10-17T11:39:11Z</time>
      </trkpt>
      <trkpt lat="37.180288" lon="-3.194683">
        <ele>1439.2</ele>
        <time>2021-10-17T11:39:28Z</time>
      </trkpt>
      <trkpt lat="37.180408" lon="-3.194477">
        <ele>1439.7</ele>
        <time>2021-10-17T11:39:44Z</time>
      </trkpt>
      <trkpt lat="37.180478" lon="-3.194245">
        <ele>1439.2</ele>
        <time>2021-10-17T11:40:00Z</time>
      </trkpt>
      <trkpt lat="37.180530" lon="-3.194004">
        <ele>1439.7</ele>
        <time>2021-10-17T11:40:16Z</time>
      </trkpt>
      <trkpt lat="37.180594" lon="-3.193779">
        <ele>1442.1</ele>
        <time>2021-10-17T11:40:34Z</time>
      </trkpt>
      <trkpt lat="37.180750" lon="-3.193634">
        <ele>1442.1</ele>
        <time>2021-10-17T11:40:51Z</time>
      </trkpt>
      <trkpt lat="37.180837" lon="-3.193410">
        <ele>1443.6</ele>
        <time>2021-10-17T11:41:07Z</time>
      </trkpt>
      <trkpt lat="37.180887" lon="-3.193182">
        <ele>1446.0</ele>
        <time>2021-10-17T11:41:22Z</time>
      </trkpt>
      <trkpt lat="37.180909" lon="-3.192931">
        <ele>1446.4</ele>
        <time>2021-10-17T11:41:40Z</time>
      </trkpt>
      <trkpt lat="37.180996" lon="-3.192714">
        <ele>1448.8</ele>
        <time>2021-10-17T11:41:57Z</time>
      </trkpt>
      <trkpt lat="37.181123" lon="-3.192553">
        <ele>1448.8</ele>
        <time>2021-10-17T11:42:13Z</time>
      </trkpt>
      <trkpt lat="37.181255" lon="-3.192374">
        <ele>1450.8</ele>
        <time>2021-10-17T11:42:29Z</time>
      </trkpt>
      <trkpt lat="37.181345" lon="-3.192188">
        <ele>1451.2</ele>
        <time>2021-10-17T11:42:46Z</time>
      </trkpt>
      <trkpt lat="37.181443" lon="-3.192008">
        <ele>1449.3</ele>
        <time>2021-10-17T11:43:09Z</time>
      </trkpt>
      <trkpt lat="37.181537" lon="-3.191796">
        <ele>1446.0</ele>
        <time>2021-10-17T11:43:28Z</time>
      </trkpt>
      <trkpt lat="37.181581" lon="-3.191578">
        <ele>1444.5</ele>
        <time>2021-10-17T11:44:00Z</time>
      </trkpt>
      <trkpt lat="37.181588" lon="-3.191343">
        <ele>1441.6</ele>
        <time>2021-10-17T11:44:19Z</time>
      </trkpt>
      <trkpt lat="37.181567" lon="-3.191144">
        <ele>1438.3</ele>
        <time>2021-10-17T11:44:59Z</time>
      </trkpt>
      <trkpt lat="37.181461" lon="-3.190947">
        <ele>1435.9</ele>
        <time>2021-10-17T11:45:18Z</time>
      </trkpt>
      <trkpt lat="37.181359" lon="-3.190750">
        <ele>1429.6</ele>
        <time>2021-10-17T11:45:46Z</time>
      </trkpt>
      <trkpt lat="37.181233" lon="-3.190574">
        <ele>1422.4</ele>
        <time>2021-10-17T11:46:06Z</time>
      </trkpt>
      <trkpt lat="37.181111" lon="-3.190376">
        <ele>1418.1</ele>
        <time>2021-10-17T11:46:24Z</time>
      </trkpt>
      <trkpt lat="37.180969" lon="-3.190182">
        <ele>1411.4</ele>
        <time>2021-10-17T11:46:56Z</time>
      </trkpt>
      <trkpt lat="37.181024" lon="-3.189987">
        <ele>1409.4</ele>
        <time>2021-10-17T11:47:25Z</time>
      </trkpt>
      <trkpt lat="37.181168" lon="-3.189803">
        <ele>1411.4</ele>
        <time>2021-10-17T11:47:51Z</time>
      </trkpt>
      <trkpt lat="37.181310" lon="-3.189648">
        <ele>1412.3</ele>
        <time>2021-10-17T11:48:06Z</time>
      </trkpt>
      <trkpt lat="37.181464" lon="-3.189517">
        <ele>1413.3</ele>
        <time>2021-10-17T11:48:26Z</time>
      </trkpt>
      <trkpt lat="37.181606" lon="-3.189388">
        <ele>1411.4</ele>
        <time>2021-10-17T11:48:41Z</time>
      </trkpt>
      <trkpt lat="37.181753" lon="-3.189251">
        <ele>1411.4</ele>
        <time>2021-10-17T11:48:57Z</time>
      </trkpt>
      <trkpt lat="37.181882" lon="-3.189103">
        <ele>1410.9</ele>
        <time>2021-10-17T11:49:18Z</time>
      </trkpt>
      <trkpt lat="37.182027" lon="-3.188954">
        <ele>1409.4</ele>
        <time>2021-10-17T11:49:33Z</time>
      </trkpt>
      <trkpt lat="37.182157" lon="-3.188810">
        <ele>1409.4</ele>
        <time>2021-10-17T11:49:47Z</time>
      </trkpt>
      <trkpt lat="37.182306" lon="-3.188668">
        <ele>1410.9</ele>
        <time>2021-10-17T11:50:01Z</time>
      </trkpt>
      <trkpt lat="37.182470" lon="-3.188548">
        <ele>1408.9</ele>
        <time>2021-10-17T11:50:15Z</time>
      </trkpt>
      <trkpt lat="37.182548" lon="-3.188360">
        <ele>1410.9</ele>
        <time>2021-10-17T11:50:31Z</time>
      </trkpt>
      <trkpt lat="37.182612" lon="-3.188150">
        <ele>1409.4</ele>
        <time>2021-10-17T11:50:45Z</time>
      </trkpt>
      <trkpt lat="37.182658" lon="-3.187922">
        <ele>1407.5</ele>
        <time>2021-10-17T11:50:59Z</time>
      </trkpt>
      <trkpt lat="37.182704" lon="-3.187694">
        <ele>1406.1</ele>
        <time>2021-10-17T11:51:15Z</time>
      </trkpt>
      <trkpt lat="37.182756" lon="-3.187462">
        <ele>1403.7</ele>
        <time>2021-10-17T11:51:39Z</time>
      </trkpt>
      <trkpt lat="37.182757" lon="-3.187228">
        <ele>1399.8</ele>
        <time>2021-10-17T11:51:54Z</time>
      </trkpt>
      <trkpt lat="37.182729" lon="-3.186994">
        <ele>1396.0</ele>
        <time>2021-10-17T11:52:10Z</time>
      </trkpt>
      <trkpt lat="37.182779" lon="-3.186759">
        <ele>1391.2</ele>
        <time>2021-10-17T11:52:27Z</time>
      </trkpt>
      <trkpt lat="37.182798" lon="-3.186501">
        <ele>1386.8</ele>
        <time>2021-10-17T11:52:46Z</time>
      </trkpt>
      <trkpt lat="37.182800" lon="-3.186261">
        <ele>1382.5</ele>
        <time>2021-10-17T11:53:00Z</time>
      </trkpt>
      <trkpt lat="37.182813" lon="-3.186030">
        <ele>1379.6</ele>
        <time>2021-10-17T11:53:15Z</time>
      </trkpt>
      <trkpt lat="37.182850" lon="-3.185808">
        <ele>1375.3</ele>
        <time>2021-10-17T11:53:29Z</time>
      </trkpt>
      <trkpt lat="37.182918" lon="-3.185606">
        <ele>1372.9</ele>
        <time>2021-10-17T11:53:43Z</time>
      </trkpt>
      <trkpt lat="37.182975" lon="-3.185410">
        <ele>1370.5</ele>
        <time>2021-10-17T11:54:01Z</time>
      </trkpt>
      <trkpt lat="37.182992" lon="-3.185175">
        <ele>1367.6</ele>
        <time>2021-10-17T11:54:17Z</time>
      </trkpt>
      <trkpt lat="37.183024" lon="-3.184941">
        <ele>1361.4</ele>
        <time>2021-10-17T11:54:33Z</time>
      </trkpt>
      <trkpt lat="37.183047" lon="-3.184701">
        <ele>1357.0</ele>
        <time>2021-10-17T11:54:49Z</time>
      </trkpt>
      <trkpt lat="37.183053" lon="-3.184475">
        <ele>1354.2</ele>
        <time>2021-10-17T11:55:15Z</time>
      </trkpt>
      <trkpt lat="37.183091" lon="-3.184254">
        <ele>1351.8</ele>
        <time>2021-10-17T11:55:30Z</time>
      </trkpt>
      <trkpt lat="37.183175" lon="-3.184056">
        <ele>1349.8</ele>
        <time>2021-10-17T11:55:45Z</time>
      </trkpt>
      <trkpt lat="37.183227" lon="-3.183870">
        <ele>1347.9</ele>
        <time>2021-10-17T11:56:24Z</time>
      </trkpt>
      <trkpt lat="37.183311" lon="-3.183683">
        <ele>1344.5</ele>
        <time>2021-10-17T11:56:39Z</time>
      </trkpt>
      <trkpt lat="37.183365" lon="-3.183468">
        <ele>1342.1</ele>
        <time>2021-10-17T11:56:54Z</time>
      </trkpt>
      <trkpt lat="37.183456" lon="-3.183279">
        <ele>1338.8</ele>
        <time>2021-10-17T11:57:09Z</time>
      </trkpt>
      <trkpt lat="37.183515" lon="-3.183067">
        <ele>1337.8</ele>
        <time>2021-10-17T11:57:25Z</time>
      </trkpt>
      <trkpt lat="37.183643" lon="-3.182914">
        <ele>1332.5</ele>
        <time>2021-10-17T11:57:44Z</time>
      </trkpt>
      <trkpt lat="37.183796" lon="-3.182788">
        <ele>1329.2</ele>
        <time>2021-10-17T11:58:00Z</time>
      </trkpt>
      <trkpt lat="37.183908" lon="-3.182633">
        <ele>1325.3</ele>
        <time>2021-10-17T11:58:15Z</time>
      </trkpt>
      <trkpt lat="37.183964" lon="-3.182421">
        <ele>1323.4</ele>
        <time>2021-10-17T11:58:31Z</time>
      </trkpt>
      <trkpt lat="37.184089" lon="-3.182248">
        <ele>1320.0</ele>
        <time>2021-10-17T11:58:47Z</time>
      </trkpt>
      <trkpt lat="37.184217" lon="-3.182181">
        <ele>1313.8</ele>
        <time>2021-10-17T11:59:27Z</time>
      </trkpt>
      <trkpt lat="37.184370" lon="-3.182137">
        <ele>1307.5</ele>
        <time>2021-10-17T11:59:53Z</time>
      </trkpt>
      <trkpt lat="37.184424" lon="-3.182325">
        <ele>1305.1</ele>
        <time>2021-10-17T12:00:18Z</time>
      </trkpt>
      <trkpt lat="37.184488" lon="-3.182541">
        <ele>1300.3</ele>
        <time>2021-10-17T12:00:42Z</time>
      </trkpt>
      <trkpt lat="37.184555" lon="-3.182759">
        <ele>1294.6</ele>
        <time>2021-10-17T12:01:04Z</time>
      </trkpt>
      <trkpt lat="37.184668" lon="-3.182888">
        <ele>1292.6</ele>
        <time>2021-10-17T12:01:36Z</time>
      </trkpt>
      <trkpt lat="37.184784" lon="-3.182883">
        <ele>1288.8</ele>
        <time>2021-10-17T12:02:01Z</time>
      </trkpt>
      <trkpt lat="37.184931" lon="-3.183083">
        <ele>1285.9</ele>
        <time>2021-10-17T12:02:36Z</time>
      </trkpt>
      <trkpt lat="37.185070" lon="-3.183256">
        <ele>1291.7</ele>
        <time>2021-10-17T12:03:01Z</time>
      </trkpt>
      <trkpt lat="37.185192" lon="-3.183494">
        <ele>1293.6</ele>
        <time>2021-10-17T12:03:28Z</time>
      </trkpt>
      <trkpt lat="37.185309" lon="-3.183673">
        <ele>1296.0</ele>
        <time>2021-10-17T12:04:00Z</time>
      </trkpt>
      <trkpt lat="37.185490" lon="-3.183677">
        <ele>1302.2</ele>
        <time>2021-10-17T12:04:35Z</time>
      </trkpt>
      <trkpt lat="37.185665" lon="-3.183654">
        <ele>1305.1</ele>
        <time>2021-10-17T12:04:58Z</time>
      </trkpt>
      <trkpt lat="37.185804" lon="-3.183505">
        <ele>1310.4</ele>
        <time>2021-10-17T12:05:19Z</time>
      </trkpt>
      <trkpt lat="37.185940" lon="-3.183382">
        <ele>1310.4</ele>
        <time>2021-10-17T12:06:06Z</time>
      </trkpt>
      <trkpt lat="37.186049" lon="-3.183213">
        <ele>1311.9</ele>
        <time>2021-10-17T12:06:29Z</time>
      </trkpt>
      <trkpt lat="37.186172" lon="-3.183060">
        <ele>1316.2</ele>
        <time>2021-10-17T12:06:50Z</time>
      </trkpt>
      <trkpt lat="37.186220" lon="-3.182844">
        <ele>1315.7</ele>
        <time>2021-10-17T12:07:08Z</time>
      </trkpt>
      <trkpt lat="37.186210" lon="-3.182617">
        <ele>1314.3</ele>
        <time>2021-10-17T12:07:24Z</time>
      </trkpt>
      <trkpt lat="37.186203" lon="-3.182466">
        <ele>1313.3</ele>
        <time>2021-10-17T12:07:38Z</time>
      </trkpt>
    </trkseg>
  </trk>
</gpx>
